Time;durP1;ratioP1;P1;durP2;ratioP2;P2;SDS_P1;SDS_P2;PMS_P1;PMS_P2;Temp;Humidity;BMP_temperature;BMP_pressure;BME280_temperature;BME280_humidity;BME280_pressure;Samples;Min_cycle;Max_cycle;Signal;HPM_P1;HPM_P2
2022/07/29 00:01:29;;;;;;;;;;;;;;;;;;4913244;29;19931;-73
2022/07/29 00:03:56;;;;;;;;;;;;;;;;;;4917666;29;19937;-73
2022/07/29 00:06:24;;;;;;;;;;;;;;;;;;4930569;29;20017;-76
2022/07/29 00:08:51;;;;;;;;;;;;;;;;;;4919695;29;20450;-73
2022/07/29 00:11:18;;;;;;;;;;;;;;;;;;4920802;29;20590;-73
2022/07/29 00:13:45;;;;;;;;;;;;;;;;;;4916932;29;19931;-73
2022/07/29 00:16:17;;;;;;;;;;;;;;;;;;4930262;29;19931;-75
2022/07/29 00:18:44;;;;;;;;;;;;;;;;;;4918535;29;19931;-74
2022/07/29 00:21:11;;;;;;;;;;;;;;;;;;4918412;29;19934;-73
2022/07/29 00:23:38;;;;;;;;;;;;;;;;;;4927729;29;20009;-73
2022/07/29 00:26:06;;;;;;;;;;;;;;;;;;4927344;29;19963;-74
2022/07/29 00:28:33;;;;;;;;;;;;;;;;;;4926108;29;19927;-76
2022/07/29 00:31:00;;;;;;;;;;;;;;;;;;4917825;29;19935;-73
2022/07/29 00:33:27;;;;;;;;;;;;;;;;;;4925399;29;20374;-76
2022/07/29 00:35:55;;;;;;;;;;;;;;;;;;5047710;23;20314;-88
2022/07/29 00:38:22;;;;;;;;;;;;;;;;;;4950458;28;19937;-86
2022/07/29 00:40:49;;;;;;;;;;;;;;;;;;4941424;28;20029;-86
2022/07/29 00:43:17;;;;;;;;;;;;;;;;;;4937410;29;20025;-85
2022/07/29 00:45:44;;;;;;;;;;;;;;;;;;4952720;28;20033;-87
2022/07/29 00:48:11;;;;;;;;;;;;;;;;;;4953069;28;19933;-87
2022/07/29 00:50:39;;;;;;;;;;;;;;;;;;4936213;29;19930;-87
2022/07/29 00:53:06;;;;;;;;;;;;;;;;;;4916255;29;20534;-87
2022/07/29 00:55:33;;;;;;;;;;;;;;;;;;4948115;28;19937;-87
2022/07/29 00:58:01;;;;;;;;;;;;;;;;;;4945568;28;20034;-88
2022/07/29 01:25:33;;;;;;;;;;;;;;;;;;4752924;30;20699;-89
2022/07/29 01:36:40;;;;;;;;;;;;;;;;;;4837476;29;20015;-87
2022/07/29 01:39:53;;;;;;;;;;;;;;;;;;4868976;29;20541;-88
2022/07/29 01:43:14;;;;;;;;;;;;;;;;;;4817137;29;20003;-85
2022/07/29 01:46:00;;;;;;;;;;;;;;;;;;4882044;29;19931;-86
2022/07/29 01:49:09;;;;;;;;;;;;;;;;;;4887688;29;19931;-86
2022/07/29 01:51:46;;;;;;;;;;;;;;;;;;4892240;29;19927;-87
2022/07/29 01:54:25;;;;;;;;;;;;;;;;;;4883373;29;19931;-86
2022/07/29 01:57:12;;;;;;;;;;;;;;;;;;4907300;29;19943;-89
2022/07/29 01:59:42;;;;;;;;;;;;;;;;;;4901753;29;19919;-87
2022/07/29 02:02:15;;;;;;;;;;;;;;;;;;4894095;29;19927;-87
2022/07/29 02:04:42;;;;;;;;;;;;;;;;;;4936616;28;19954;-87
2022/07/29 02:07:10;;;;;;;;;;;;;;;;;;4941655;29;19950;-88
2022/07/29 02:09:54;;;;;;;;;;;;;;;;;;4963602;28;19958;-86
2022/07/29 02:12:24;;;;;;;;;;;;;;;;;;4950537;29;19930;-86
2022/07/29 02:14:51;;;;;;;;;;;;;;;;;;4968465;29;19927;-87
2022/07/29 02:17:21;;;;;;;;;;;;;;;;;;4955277;28;20017;-88
2022/07/29 02:19:48;;;;;;;;;;;;;;;;;;4956570;28;19934;-88
2022/07/29 02:22:16;;;;;;;;;;;;;;;;;;4960957;28;19970;-87
2022/07/29 02:24:44;;;;;;;;;;;;;;;;;;4956166;28;20040;-88
2022/07/29 02:27:14;;;;;;;;;;;;;;;;;;4961412;28;19962;-88
2022/07/29 02:29:42;;;;;;;;;;;;;;;;;;4934271;28;20015;-89
2022/07/29 02:32:15;;;;;;;;;;;;;;;;;;4951985;28;19933;-87
2022/07/29 02:34:42;;;;;;;;;;;;;;;;;;4936844;29;20409;-87
2022/07/29 02:37:13;;;;;;;;;;;;;;;;;;4935380;29;19930;-87
2022/07/29 02:39:43;;;;;;;;;;;;;;;;;;4949008;28;19930;-88
2022/07/29 02:42:18;;;;;;;;;;;;;;;;;;4933534;28;19926;-86
2022/07/29 02:44:45;;;;;;;;;;;;;;;;;;4942095;29;19931;-87
2022/07/29 02:47:19;;;;;;;;;;;;;;;;;;4933985;29;19958;-89
2022/07/29 02:49:51;;;;;;;;;;;;;;;;;;4949755;28;19927;-88
2022/07/29 02:52:18;;;;;;;;;;;;;;;;;;4949378;28;19965;-87
2022/07/29 02:54:46;;;;;;;;;;;;;;;;;;4945492;28;19949;-87
2022/07/29 02:57:13;;;;;;;;;;;;;;;;;;4949131;28;20056;-87
2022/07/29 02:59:40;;;;;;;;;;;;;;;;;;4951080;28;19927;-86
2022/07/29 03:02:10;;;;;;;;;;;;;;;;;;4949996;28;19985;-88
2022/07/29 03:04:37;;;;;;;;;;;;;;;;;;4936727;29;19935;-87
2022/07/29 03:07:05;;;;;;;;;;;;;;;;;;4954581;28;20033;-88
2022/07/29 03:09:32;;;;;;;;;;;;;;;;;;4976811;28;20028;-88
2022/07/29 03:12:05;;;;;;;;;;;;;;;;;;4976074;28;20689;-87
2022/07/29 03:14:51;;;;;;;;;;;;;;;;;;4977401;28;19970;-86
2022/07/29 03:17:50;;;;;;;;;;;;;;;;;;4972018;28;20323;-86
2022/07/29 03:20:20;;;;;;;;;;;;;;;;;;4957385;28;19930;-86
2022/07/29 03:23:04;;;;;;;;;;;;;;;;;;4956165;28;19926;-88
2022/07/29 03:25:43;;;;;;;;;;;;;;;;;;4956389;28;20021;-87
2022/07/29 03:28:20;;;;;;;;;;;;;;;;;;4955292;28;19930;-86
2022/07/29 03:30:47;;;;;;;;;;;;;;;;;;4957547;29;19977;-86
2022/07/29 03:33:14;;;;;;;;;;;;;;;;;;4932360;29;20698;-86
2022/07/29 03:35:44;;;;;;;;;;;;;;;;;;4953874;28;19926;-87
2022/07/29 03:38:11;;;;;;;;;;;;;;;;;;4972072;28;19930;-87
2022/07/29 03:40:39;;;;;;;;;;;;;;;;;;4957181;28;19946;-87
2022/07/29 03:43:06;;;;;;;;;;;;;;;;;;4957784;28;19934;-87
2022/07/29 03:45:33;;;;;;;;;;;;;;;;;;4945905;29;19930;-87
2022/07/29 03:48:00;;;;;;;;;;;;;;;;;;4940044;28;19937;-88
2022/07/29 03:50:27;;;;;;;;;;;;;;;;;;4940318;29;19982;-88
2022/07/29 03:52:56;;;;;;;;;;;;;;;;;;4928420;29;19930;-86
2022/07/29 03:55:23;;;;;;;;;;;;;;;;;;4938426;29;20306;-88
2022/07/29 03:57:51;;;;;;;;;;;;;;;;;;4936228;29;19966;-89
2022/07/29 04:00:24;;;;;;;;;;;;;;;;;;4921920;29;19931;-88
2022/07/29 04:02:51;;;;;;;;;;;;;;;;;;4936912;29;20018;-88
2022/07/29 04:05:22;;;;;;;;;;;;;;;;;;4958143;28;19935;-87
2022/07/29 04:08:03;;;;;;;;;;;;;;;;;;4942756;28;19931;-87
2022/07/29 04:11:34;;;;;;;;;;;;;;;;;;4938094;28;19933;-87
2022/07/29 04:15:13;;;;;;;;;;;;;;;;;;4934295;28;20009;-87
2022/07/29 04:18:37;;;;;;;;;;;;;;;;;;4953286;28;19981;-87
2022/07/29 04:22:11;;;;;;;;;;;;;;;;;;;;;
2022/07/29 04:25:26;;;;;;;;;;;;;;;;;;4894481;29;20026;-86
2022/07/29 04:28:51;;;;;;;;;;;;;;;;;;4885854;29;19958;-87
2022/07/29 04:31:28;;;;;;;;;;;;;;;;;;4904979;29;19931;-87
2022/07/29 04:34:02;;;;;;;;;;;;;;;;;;4848513;29;20344;-88
2022/07/29 04:36:29;;;;;;;;;;;;;;;;;;4896780;29;20023;-87
2022/07/29 04:39:09;;;;;;;;;;;;;;;;;;4890232;28;19939;-88
2022/07/29 04:41:54;;;;;;;;;;;;;;;;;;4930008;29;19981;-88
2022/07/29 04:44:57;;;;;;;;;;;;;;;;;;4941524;28;20387;-88
2022/07/29 04:47:52;;;;;;;;;;;;;;;;;;4939985;28;19935;-87
2022/07/29 04:50:25;;;;;;;;;;;;;;;;;;4920966;28;19941;-88
2022/07/29 04:53:08;;;;;;;;;;;;;;;;;;4946096;28;19930;-87
2022/07/29 04:55:46;;;;;;;;;;;;;;;;;;4943650;28;19927;-87
2022/07/29 04:58:28;;;;;;;;;;;;;;;;;;4931330;29;19937;-88
2022/07/29 05:01:06;;;;;;;;;;;;;;;;;;4933805;29;19941;-86
2022/07/29 05:03:53;;;;;;;;;;;;;;;;;;4920944;29;20386;-86
2022/07/29 05:06:35;;;;;;;;;;;;;;;;;;4951437;29;19931;-86
2022/07/29 05:09:19;;;;;;;;;;;;;;;;;;4924956;28;19930;-85
2022/07/29 05:11:53;;;;;;;;;;;;;;;;;;4946951;28;19957;-85
2022/07/29 05:14:23;;;;;;;;;;;;;;;;;;4919671;29;20026;-86
2022/07/29 05:16:50;;;;;;;;;;;;;;;;;;4935669;29;19930;-86
2022/07/29 05:19:21;;;;;;;;;;;;;;;;;;4941364;28;20382;-86
2022/07/29 05:22:47;;;;;;;;;;;;;;;;;;4946449;28;20398;-86
2022/07/29 05:28:59;;;;;;;;;;;;;;;;;;4931316;29;20322;-87
2022/07/29 05:31:27;;;;;;;;;;;;;;;;;;4957782;28;20435;-87
2022/07/29 05:33:55;;;;;;;;;;;;;;;;;;4961461;28;19942;-87
2022/07/29 05:36:28;;;;;;;;;;;;;;;;;;4948942;29;19981;-88
2022/07/29 05:39:02;;;;;;;;;;;;;;;;;;4945947;28;20402;-87
2022/07/29 05:41:39;;;;;;;;;;;;;;;;;;4933031;28;20420;-87
2022/07/29 05:44:48;;;;;;;;;;;;;;;;;;4907860;29;19958;-87
2022/07/29 05:48:19;;;;;;;;;;;;;;;;;;;;;
2022/07/29 05:51:52;;;;;;;;;;;;;;;;;;4855824;29;19931;-85
2022/07/29 05:58:44;;;;;;;;;;;;;;;;;;4908977;28;20457;-86
2022/07/29 06:06:22;;;;;;;;;;;;;;;;;;;;;
2022/07/29 06:10:30;;;;;;;;;;;;;;;;;;4826544;29;20080;-86
2022/07/29 06:14:07;;;;;;;;;;;;;;;;;;4837623;29;19949;-87
2022/07/29 06:16:38;;;;;;;;;;;;;;;;;;4837781;29;19934;-86
2022/07/29 06:19:28;;;;;;;;;;;;;;;;;;4880710;29;19934;-86
2022/07/29 06:22:06;;;;;;;;;;;;;;;;;;4881244;29;19938;-86
2022/07/29 06:24:44;;;;;;;;;;;;;;;;;;;;;
2022/07/29 06:27:18;;;;;;;;;;;;;;;;;;4861044;29;19927;-87
2022/07/29 06:30:06;;;;;;;;;;;;;;;;;;4870122;29;19936;-87
2022/07/29 06:32:45;;;;;;;;;;;;;;;;;;4939426;29;19973;-86
2022/07/29 06:35:23;;;;;;;;;;;;;;;;;;4942596;29;20485;-87
2022/07/29 06:38:21;;;;;;;;;;;;;;;;;;4920156;29;19998;-87
2022/07/29 06:41:15;;;;;;;;;;;;;;;;;;4922877;29;19935;-86
2022/07/29 06:43:56;;;;;;;;;;;;;;;;;;4930921;29;20445;-87
2022/07/29 06:47:16;;;;;;;;;;;;;;;;;;4917308;29;20033;-88
2022/07/29 06:49:59;;;;;;;;;;;;;;;;;;4925461;29;19933;-88
2022/07/29 06:52:36;;;;;;;;;;;;;;;;;;4917585;29;19986;-86
2022/07/29 06:55:07;;;;;;;;;;;;;;;;;;4899449;29;19997;-86
2022/07/29 06:57:41;;;;;;;;;;;;;;;;;;4934379;29;19986;-88
2022/07/29 07:01:05;;;;;;;;;;;;;;;;;;4923501;29;19927;-88
2022/07/29 07:07:33;;;;;;;;;;;;;;;;;;4931848;29;19963;-90
2022/07/29 07:10:19;;;;;;;;;;;;;;;;;;4925003;29;19935;-90
2022/07/29 07:13:15;;;;;;;;;;;;;;;;;;4926407;29;19954;-89
2022/07/29 07:16:16;;;;;;;;;;;;;;;;;;4918667;29;20399;-91
2022/07/29 07:27:31;;;;;;;;;;;;;;;;;;;;;
2022/07/29 07:31:24;;;;;;;;;;;;;;;;;;4903270;29;20513;-88
2022/07/29 07:34:24;;;;;;;;;;;;;;;;;;4859600;29;20045;-89
2022/07/29 07:46:31;;;;;;;;;;;;;;;;;;4736204;29;19955;-91
2022/07/29 07:49:31;;;;;;;;;;;;;;;;;;4774919;29;19937;-89
2022/07/29 07:55:41;;;;;;;;;;;;;;;;;;4821960;29;20358;-88
2022/07/29 07:58:41;;;;;;;;;;;;;;;;;;4838138;23;19965;-72
2022/07/29 08:01:09;;;;;;;;;;;;;;;;;;4969141;28;19957;-71
2022/07/29 08:03:36;;;;;;;;;;;;;;;;;;4967779;28;19926;-72
2022/07/29 08:06:04;;;;;;;;;;;;;;;;;;4964174;28;20028;-72
2022/07/29 08:08:31;;;;;;;;;;;;;;;;;;4967208;28;19930;-71
2022/07/29 08:10:58;;;;;;;;;;;;;;;;;;4961533;28;19930;-72
2022/07/29 08:13:30;;;;;;;;;;;;;;;;;;4960967;28;20028;-72
2022/07/29 08:15:57;;;;;;;;;;;;;;;;;;4968523;28;19937;-72
2022/07/29 08:18:25;;;;;;;;;;;;;;;;;;4969902;28;19941;-72
2022/07/29 08:20:52;;;;;;;;;;;;;;;;;;4962570;28;19930;-71
2022/07/29 08:23:19;;;;;;;;;;;;;;;;;;4967834;28;20353;-71
2022/07/29 08:25:47;;;;;;;;;;;;;;;;;;4970057;28;19952;-71
2022/07/29 08:28:16;;;;;;;;;;;;;;;;;;4968936;28;19937;-71
2022/07/29 08:30:44;;;;;;;;;;;;;;;;;;4964109;28;19949;-71
2022/07/29 08:33:11;;;;;;;;;;;;;;;;;;4943046;28;19934;-72
2022/07/29 08:35:39;;;;;;;;;;;;;;;;;;4956174;28;19926;-72
2022/07/29 08:38:06;;;;;;;;;;;;;;;;;;4962477;28;19934;-72
2022/07/29 08:40:33;;;;;;;;;;;;;;;;;;4968113;28;19930;-72
2022/07/29 08:43:01;;;;;;;;;;;;;;;;;;4959217;28;19965;-72
2022/07/29 08:45:28;;;;;;;;;;;;;;;;;;4968071;28;20297;-71
2022/07/29 08:47:55;;;;;;;;;;;;;;;;;;4965521;28;19930;-72
2022/07/29 08:50:22;;;;;;;;;;;;;;;;;;4959997;28;20301;-72
2022/07/29 08:52:50;;;;;;;;;;;;;;;;;;4944008;28;19926;-74
2022/07/29 08:55:17;;;;;;;;;;;;;;;;;;4961060;28;19965;-73
2022/07/29 08:57:47;;;;;;;;;;;;;;;;;;4966754;28;19926;-72
2022/07/29 09:00:18;;;;;;;;;;;;;;;;;;4963171;28;19926;-72
2022/07/29 09:02:45;;;;;;;;;;;;;;;;;;4966724;28;19934;-73
2022/07/29 09:05:12;;;;;;;;;;;;;;;;;;4959557;28;20351;-73
2022/07/29 09:07:42;;;;;;;;;;;;;;;;;;4963668;28;19930;-73
2022/07/29 09:10:10;;;;;;;;;;;;;;;;;;4961124;28;19930;-73
2022/07/29 09:12:37;;;;;;;;;;;;;;;;;;4964926;28;19941;-73
2022/07/29 09:15:04;;;;;;;;;;;;;;;;;;4963003;28;20024;-73
2022/07/29 09:17:32;;;;;;;;;;;;;;;;;;4961090;28;20290;-74
2022/07/29 09:19:59;;;;;;;;;;;;;;;;;;4961390;28;19930;-74
2022/07/29 09:22:26;;;;;;;;;;;;;;;;;;4966591;28;20027;-73
2022/07/29 09:24:55;;;;;;;;;;;;;;;;;;4965609;28;20060;-75
2022/07/29 09:27:22;;;;;;;;;;;;;;;;;;4966212;28;20299;-73
2022/07/29 09:29:49;;;;;;;;;;;;;;;;;;4964882;28;20250;-73
2022/07/29 09:32:16;;;;;;;;;;;;;;;;;;4950437;28;19938;-74
2022/07/29 09:34:44;;;;;;;;;;;;;;;;;;4968427;28;20025;-75
2022/07/29 09:37:11;;;;;;;;;;;;;;;;;;4968619;28;19926;-73
2022/07/29 09:39:45;;;;;;;;;;;;;;;;;;4969072;28;19930;-73
2022/07/29 09:42:13;;;;;;;;;;;;;;;;;;4969147;28;20025;-77
2022/07/29 09:44:40;;;;;;;;;;;;;;;;;;4968980;28;20357;-73
2022/07/29 09:47:08;;;;;;;;;;;;;;;;;;4968717;28;19945;-73
2022/07/29 09:49:35;;;;;;;;;;;;;;;;;;4951504;28;19930;-75
2022/07/29 09:52:02;;;;;;;;;;;;;;;;;;4968863;28;19981;-74
2022/07/29 09:54:36;;;;;;;;;;;;;;;;;;4968354;28;19926;-73
2022/07/29 09:57:04;;;;;;;;;;;;;;;;;;4965860;28;19937;-74
2022/07/29 09:59:31;;;;;;;;;;;;;;;;;;4967780;28;19938;-74
2022/07/29 10:01:58;;;;;;;;;;;;;;;;;;4968413;28;19934;-74
2022/07/29 10:04:25;;;;;;;;;;;;;;;;;;4967922;28;19930;-75
2022/07/29 10:06:53;;;;;;;;;;;;;;;;;;4961924;28;19926;-73
2022/07/29 10:09:20;;;;;;;;;;;;;;;;;;4963062;28;19932;-73
2022/07/29 10:11:48;;;;;;;;;;;;;;;;;;4968173;28;19937;-72
2022/07/29 10:14:16;;;;;;;;;;;;;;;;;;4967477;28;19945;-74
2022/07/29 10:16:43;;;;;;;;;;;;;;;;;;4967975;28;20313;-73
2022/07/29 10:19:10;;;;;;;;;;;;;;;;;;4968696;28;19965;-74
2022/07/29 10:21:39;;;;;;;;;;;;;;;;;;4968393;28;19926;-73
2022/07/29 10:24:06;;;;;;;;;;;;;;;;;;4974787;28;19934;-73
2022/07/29 10:26:41;;;;;;;;;;;;;;;;;;4967271;28;19930;-74
2022/07/29 10:29:08;;;;;;;;;;;;;;;;;;4967401;28;19930;-74
2022/07/29 10:31:35;;;;;;;;;;;;;;;;;;4968192;28;20017;-73
2022/07/29 10:34:03;;;;;;;;;;;;;;;;;;4967397;28;20390;-75
2022/07/29 10:36:30;;;;;;;;;;;;;;;;;;4967099;28;19926;-76
2022/07/29 10:38:57;;;;;;;;;;;;;;;;;;4968076;28;19930;-76
2022/07/29 10:41:28;;;;;;;;;;;;;;;;;;4969435;28;19977;-75
2022/07/29 10:43:58;;;;;;;;;;;;;;;;;;4968444;28;19936;-74
2022/07/29 10:46:26;;;;;;;;;;;;;;;;;;4967912;28;19930;-77
2022/07/29 10:48:53;;;;;;;;;;;;;;;;;;4967480;28;19930;-74
2022/07/29 10:51:20;;;;;;;;;;;;;;;;;;4967593;28;19937;-75
2022/07/29 10:53:48;;;;;;;;;;;;;;;;;;4967539;28;20173;-75
2022/07/29 10:56:15;;;;;;;;;;;;;;;;;;4967724;28;19930;-74
2022/07/29 10:58:43;;;;;;;;;;;;;;;;;;4966995;28;20271;-75
2022/07/29 11:01:18;;;;;;;;;;;;;;;;;;4947699;28;19958;-74
2022/07/29 11:04:04;;;;;;;;;;;;;;;;;;4962507;28;20666;-74
2022/07/29 11:06:32;;;;;;;;;;;;;;;;;;4949592;28;19926;-74
2022/07/29 11:08:59;;;;;;;;;;;;;;;;;;4967428;28;19965;-75
2022/07/29 11:11:26;;;;;;;;;;;;;;;;;;4967640;28;19934;-72
2022/07/29 11:13:56;;;;;;;;;;;;;;;;;;4934310;28;19930;-75
2022/07/29 11:16:23;;;;;;;;;;;;;;;;;;4967979;28;19926;-74
2022/07/29 11:18:51;;;;;;;;;;;;;;;;;;4967498;28;19974;-76
2022/07/29 11:21:18;;;;;;;;;;;;;;;;;;4950758;28;19936;-74
2022/07/29 11:23:49;;;;;;;;;;;;;;;;;;4949350;28;19974;-76
2022/07/29 11:26:16;;;;;;;;;;;;;;;;;;4969539;28;19934;-74
2022/07/29 11:28:45;;;;;;;;;;;;;;;;;;4970407;28;19926;-75
2022/07/29 11:31:12;;;;;;;;;;;;;;;;;;4970967;28;19937;-76
2022/07/29 11:33:39;;;;;;;;;;;;;;;;;;4970783;28;20020;-75
2022/07/29 11:36:22;;;;;;;;;;;;;;;;;;4970037;28;19936;-73
2022/07/29 11:38:54;;;;;;;;;;;;;;;;;;4953746;28;19930;-75
2022/07/29 11:41:24;;;;;;;;;;;;;;;;;;4970865;28;20391;-74
2022/07/29 11:43:52;;;;;;;;;;;;;;;;;;4971168;28;19981;-73
2022/07/29 11:46:19;;;;;;;;;;;;;;;;;;4971160;28;20301;-75
2022/07/29 11:48:51;;;;;;;;;;;;;;;;;;4970735;28;19993;-77
2022/07/29 11:51:18;;;;;;;;;;;;;;;;;;4953477;28;19926;-74
2022/07/29 11:53:45;;;;;;;;;;;;;;;;;;4970726;28;19976;-74
2022/07/29 11:56:13;;;;;;;;;;;;;;;;;;4970851;28;19930;-75
2022/07/29 11:58:43;;;;;;;;;;;;;;;;;;4970222;28;20435;-75
2022/07/29 12:01:10;;;;;;;;;;;;;;;;;;4971271;28;20362;-75
2022/07/29 12:03:37;;;;;;;;;;;;;;;;;;4970504;28;20073;-77
2022/07/29 12:06:05;;;;;;;;;;;;;;;;;;4970667;28;20298;-75
2022/07/29 12:08:33;;;;;;;;;;;;;;;;;;4970618;28;19932;-75
2022/07/29 12:11:02;;;;;;;;;;;;;;;;;;4970597;28;19958;-76
2022/07/29 12:13:29;;;;;;;;;;;;;;;;;;4971940;28;19930;-75
2022/07/29 12:16:03;;;;;;;;;;;;;;;;;;4970886;28;19992;-75
2022/07/29 12:18:30;;;;;;;;;;;;;;;;;;4969759;28;19937;-77
2022/07/29 12:20:58;;;;;;;;;;;;;;;;;;4968617;28;19933;-75
2022/07/29 12:23:25;;;;;;;;;;;;;;;;;;4961938;28;20282;-76
2022/07/29 12:25:55;;;;;;;;;;;;;;;;;;4969203;28;20417;-75
2022/07/29 12:28:22;;;;;;;;;;;;;;;;;;4968168;28;20606;-76
2022/07/29 12:30:53;;;;;;;;;;;;;;;;;;4952656;28;19955;-77
2022/07/29 12:33:20;;;;;;;;;;;;;;;;;;4943954;28;19954;-76
2022/07/29 12:35:48;;;;;;;;;;;;;;;;;;4967613;28;19938;-75
2022/07/29 12:38:29;;;;;;;;;;;;;;;;;;4966539;28;19930;-78
2022/07/29 12:40:57;;;;;;;;;;;;;;;;;;4969248;28;20037;-75
2022/07/29 12:43:24;;;;;;;;;;;;;;;;;;4969674;28;19942;-75
2022/07/29 12:45:53;;;;;;;;;;;;;;;;;;4970080;28;20364;-76
2022/07/29 12:48:20;;;;;;;;;;;;;;;;;;4952141;28;19989;-75
2022/07/29 12:50:47;;;;;;;;;;;;;;;;;;4968973;28;20298;-77
2022/07/29 12:56:03;;;;;;;;;;;;;;;;;;4920368;29;19959;-70
2022/07/29 12:58:41;;;;;;;;;;;;;;;;;;4936190;29;19960;-71
2022/07/29 13:01:11;;;;;;;;;;;;;;;;;;4912656;29;20069;-71
2022/07/29 13:03:43;;;;;;;;;;;;;;;;;;4924262;29;19934;-71
2022/07/29 13:06:10;;;;;;;;;;;;;;;;;;4941735;29;19937;-71
2022/07/29 13:08:38;;;;;;;;;;;;;;;;;;4932299;29;20381;-71
2022/07/29 13:11:05;;;;;;;;;;;;;;;;;;4924542;29;19981;-72
2022/07/29 13:13:32;;;;;;;;;;;;;;;;;;4919152;29;19938;-71
2022/07/29 13:16:00;;;;;;;;;;;;;;;;;;4924522;29;19931;-71
2022/07/29 13:18:27;;;;;;;;;;;;;;;;;;4918921;29;19927;-72
2022/07/29 13:20:55;;;;;;;;;;;;;;;;;;4921471;29;19931;-71
2022/07/29 13:23:22;;;;;;;;;;;;;;;;;;4917758;29;19931;-72
2022/07/29 13:25:49;;;;;;;;;;;;;;;;;;4924581;29;19950;-71
2022/07/29 13:28:17;;;;;;;;;;;;;;;;;;4933777;29;20321;-71
2022/07/29 13:30:44;;;;;;;;;;;;;;;;;;4941261;28;19934;-71
2022/07/29 13:33:11;;;;;;;;;;;;;;;;;;4934515;29;19962;-71
2022/07/29 13:35:39;;;;;;;;;;;;;;;;;;4933980;29;20025;-71
2022/07/29 13:38:07;;;;;;;;;;;;;;;;;;4933833;29;19999;-72
2022/07/29 13:40:35;;;;;;;;;;;;;;;;;;4932651;29;20013;-71
2022/07/29 13:43:02;;;;;;;;;;;;;;;;;;4931134;29;19935;-71
2022/07/29 13:45:29;;;;;;;;;;;;;;;;;;4933626;29;19931;-71
2022/07/29 13:47:57;;;;;;;;;;;;;;;;;;4925978;29;19931;-71
2022/07/29 13:50:24;;;;;;;;;;;;;;;;;;4929957;29;19980;-72
2022/07/29 13:52:52;;;;;;;;;;;;;;;;;;4930642;29;19962;-72
2022/07/29 13:55:19;;;;;;;;;;;;;;;;;;4914212;29;19931;-71
2022/07/29 13:57:47;;;;;;;;;;;;;;;;;;4934916;28;19933;-72
2022/07/29 14:00:15;;;;;;;;;;;;;;;;;;4924896;28;20276;-72
2022/07/29 14:02:42;;;;;;;;;;;;;;;;;;4918074;29;19978;-72
2022/07/29 14:05:09;;;;;;;;;;;;;;;;;;4904938;29;19930;-71
2022/07/29 14:07:38;;;;;;;;;;;;;;;;;;4914291;29;20454;-71
2022/07/29 14:10:05;;;;;;;;;;;;;;;;;;4913318;29;20303;-72
2022/07/29 14:12:33;;;;;;;;;;;;;;;;;;4918569;29;19934;-72
2022/07/29 14:15:00;;;;;;;;;;;;;;;;;;4910662;29;20417;-72
2022/07/29 14:17:27;;;;;;;;;;;;;;;;;;4909657;29;20022;-71
2022/07/29 14:19:55;;;;;;;;;;;;;;;;;;4906974;29;19931;-72
2022/07/29 14:22:22;;;;;;;;;;;;;;;;;;4908152;29;20025;-71
2022/07/29 14:24:52;;;;;;;;;;;;;;;;;;4906388;29;20018;-71
2022/07/29 14:27:19;;;;;;;;;;;;;;;;;;4904238;29;20418;-71
2022/07/29 14:29:46;;;;;;;;;;;;;;;;;;4901499;29;21032;-71
2022/07/29 14:32:14;;;;;;;;;;;;;;;;;;4908530;29;20330;-71
2022/07/29 14:34:42;;;;;;;;;;;;;;;;;;4906528;29;19935;-71
2022/07/29 14:37:09;;;;;;;;;;;;;;;;;;4904674;29;19930;-72
2022/07/29 14:39:42;;;;;;;;;;;;;;;;;;4903135;29;20331;-72
2022/07/29 14:42:09;;;;;;;;;;;;;;;;;;4902930;29;20491;-71
2022/07/29 14:44:37;;;;;;;;;;;;;;;;;;4905999;29;20359;-72
2022/07/29 14:47:05;;;;;;;;;;;;;;;;;;4898748;29;20253;-71
2022/07/29 14:49:34;;;;;;;;;;;;;;;;;;4900971;29;20038;-72
2022/07/29 14:52:01;;;;;;;;;;;;;;;;;;4907797;29;19937;-71
2022/07/29 14:54:28;;;;;;;;;;;;;;;;;;4907264;29;20027;-72
2022/07/29 14:56:56;;;;;;;;;;;;;;;;;;4897808;29;19931;-70
2022/07/29 14:59:24;;;;;;;;;;;;;;;;;;4906998;29;19942;-71
2022/07/29 15:01:52;;;;;;;;;;;;;;;;;;4909345;29;19935;-71
2022/07/29 15:04:19;;;;;;;;;;;;;;;;;;4910619;29;19931;-71
2022/07/29 15:06:47;;;;;;;;;;;;;;;;;;4903689;29;19934;-71
2022/07/29 15:09:14;;;;;;;;;;;;;;;;;;4907595;29;19938;-72
2022/07/29 15:11:41;;;;;;;;;;;;;;;;;;4893040;29;19934;-72
2022/07/29 15:14:08;;;;;;;;;;;;;;;;;;4911714;29;20294;-72
2022/07/29 15:16:36;;;;;;;;;;;;;;;;;;4907852;29;19938;-72
2022/07/29 15:19:03;;;;;;;;;;;;;;;;;;4909290;29;21276;-70
2022/07/29 15:21:31;;;;;;;;;;;;;;;;;;4893878;29;19942;-71
2022/07/29 15:23:58;;;;;;;;;;;;;;;;;;4907059;29;20020;-71
2022/07/29 15:26:25;;;;;;;;;;;;;;;;;;4910854;29;20358;-72
2022/07/29 15:28:55;;;;;;;;;;;;;;;;;;4904750;29;20054;-71
2022/07/29 15:31:22;;;;;;;;;;;;;;;;;;4908502;29;20502;-71
2022/07/29 15:33:51;;;;;;;;;;;;;;;;;;4915232;29;19937;-71
2022/07/29 15:36:23;;;;;;;;;;;;;;;;;;4908990;29;20280;-71
2022/07/29 15:39:11;;;;;;;;;;;;;;;;;;4906965;29;19941;-70
2022/07/29 15:41:38;;;;;;;;;;;;;;;;;;4911431;29;19935;-72
2022/07/29 15:44:05;;;;;;;;;;;;;;;;;;4907478;29;20037;-72
2022/07/29 15:49:18;;;;;;;;;;;;;;;;;;4914594;29;19931;-72
2022/07/29 15:51:46;;;;;;;;;;;;;;;;;;4897838;29;19985;-72
2022/07/29 15:54:13;;;;;;;;;;;;;;;;;;4914685;29;19930;-72
2022/07/29 15:56:40;;;;;;;;;;;;;;;;;;4912202;29;19931;-72
2022/07/29 15:59:08;;;;;;;;;;;;;;;;;;4896140;29;20078;-72
2022/07/29 16:01:35;;;;;;;;;;;;;;;;;;4912934;29;19930;-71
2022/07/29 16:04:02;;;;;;;;;;;;;;;;;;4914264;29;20046;-72
2022/07/29 16:06:30;;;;;;;;;;;;;;;;;;4914486;29;19934;-71
2022/07/29 16:08:59;;;;;;;;;;;;;;;;;;4908384;29;20458;-73
2022/07/29 16:11:26;;;;;;;;;;;;;;;;;;4906482;28;19931;-72
2022/07/29 16:13:53;;;;;;;;;;;;;;;;;;4913887;29;20418;-72
2022/07/29 16:16:21;;;;;;;;;;;;;;;;;;4916665;29;20017;-73
2022/07/29 16:18:48;;;;;;;;;;;;;;;;;;4913754;28;19931;-73
2022/07/29 16:21:15;;;;;;;;;;;;;;;;;;4900360;29;20522;-73
2022/07/29 16:23:43;;;;;;;;;;;;;;;;;;4911347;29;19934;-73
2022/07/29 16:26:10;;;;;;;;;;;;;;;;;;4917123;29;19930;-73
2022/07/29 16:28:38;;;;;;;;;;;;;;;;;;4914020;29;19938;-73
2022/07/29 16:31:05;;;;;;;;;;;;;;;;;;4914170;29;19935;-72
2022/07/29 16:33:32;;;;;;;;;;;;;;;;;;4915552;29;19937;-73
2022/07/29 16:36:19;;;;;;;;;;;;;;;;;;4918302;29;19935;-73
2022/07/29 16:38:47;;;;;;;;;;;;;;;;;;4899074;29;19962;-74
2022/07/29 16:41:14;;;;;;;;;;;;;;;;;;4918487;29;19935;-74
2022/07/29 16:43:41;;;;;;;;;;;;;;;;;;4916630;29;19931;-73
2022/07/29 16:46:09;;;;;;;;;;;;;;;;;;4918421;29;19942;-72
2022/07/29 16:48:38;;;;;;;;;;;;;;;;;;4919563;29;19945;-72
2022/07/29 16:51:05;;;;;;;;;;;;;;;;;;4916025;29;19930;-73
2022/07/29 16:53:33;;;;;;;;;;;;;;;;;;4911872;29;19974;-73
2022/07/29 16:56:00;;;;;;;;;;;;;;;;;;4917061;29;19942;-73
2022/07/29 16:58:28;;;;;;;;;;;;;;;;;;4917742;28;19937;-73
2022/07/29 17:00:55;;;;;;;;;;;;;;;;;;4917848;29;19934;-73
2022/07/29 17:03:22;;;;;;;;;;;;;;;;;;4915855;29;19934;-72
2022/07/29 17:05:49;;;;;;;;;;;;;;;;;;4915872;29;19935;-73
2022/07/29 17:08:17;;;;;;;;;;;;;;;;;;4913991;29;19931;-73
2022/07/29 17:10:44;;;;;;;;;;;;;;;;;;4913690;29;19931;-74
2022/07/29 17:13:11;;;;;;;;;;;;;;;;;;4915433;29;20046;-72
2022/07/29 17:15:38;;;;;;;;;;;;;;;;;;4912251;29;19930;-75
2022/07/29 17:18:07;;;;;;;;;;;;;;;;;;4914484;29;19962;-73
2022/07/29 17:20:39;;;;;;;;;;;;;;;;;;4914584;29;19938;-72
2022/07/29 17:23:06;;;;;;;;;;;;;;;;;;4913520;29;19931;-73
2022/07/29 17:25:33;;;;;;;;;;;;;;;;;;4917014;29;19941;-73
2022/07/29 17:28:01;;;;;;;;;;;;;;;;;;4912102;29;20263;-72
2022/07/29 17:30:28;;;;;;;;;;;;;;;;;;4905101;29;20429;-72
2022/07/29 17:32:55;;;;;;;;;;;;;;;;;;4912482;29;20382;-72
2022/07/29 17:38:08;;;;;;;;;;;;;;;;;;4911530;29;20007;-72
2022/07/29 17:40:36;;;;;;;;;;;;;;;;;;4895722;29;19931;-72
2022/07/29 17:43:03;;;;;;;;;;;;;;;;;;4911705;29;20590;-72
2022/07/29 17:45:30;;;;;;;;;;;;;;;;;;4917868;29;20058;-72
2022/07/29 17:48:16;;;;;;;;;;;;;;;;;;4923039;29;19926;-72
2022/07/29 17:50:43;;;;;;;;;;;;;;;;;;4927934;29;20492;-72
2022/07/29 17:53:11;;;;;;;;;;;;;;;;;;4928582;29;19937;-72
2022/07/29 17:55:44;;;;;;;;;;;;;;;;;;4929241;29;20010;-72
2022/07/29 17:58:11;;;;;;;;;;;;;;;;;;4921234;29;20114;-72
2022/07/29 18:00:38;;;;;;;;;;;;;;;;;;4925934;29;20732;-73
2022/07/29 18:03:06;;;;;;;;;;;;;;;;;;4906109;29;19938;-72
2022/07/29 18:05:33;;;;;;;;;;;;;;;;;;4920008;29;20681;-73
2022/07/29 18:08:01;;;;;;;;;;;;;;;;;;4921505;29;19934;-72
2022/07/29 18:10:29;;;;;;;;;;;;;;;;;;4910009;29;19934;-73
2022/07/29 18:12:56;;;;;;;;;;;;;;;;;;4923421;29;19946;-72
2022/07/29 18:15:23;;;;;;;;;;;;;;;;;;4920999;29;20025;-72
2022/07/29 18:17:50;;;;;;;;;;;;;;;;;;4916172;29;19939;-71
2022/07/29 18:20:23;;;;;;;;;;;;;;;;;;4915941;29;19931;-72
2022/07/29 18:22:51;;;;;;;;;;;;;;;;;;4924758;29;19942;-72
2022/07/29 18:25:18;;;;;;;;;;;;;;;;;;4926123;29;20506;-72
2022/07/29 18:27:45;;;;;;;;;;;;;;;;;;4926092;29;19927;-72
2022/07/29 18:30:16;;;;;;;;;;;;;;;;;;4926255;29;19933;-72
2022/07/29 18:32:43;;;;;;;;;;;;;;;;;;4926744;29;20472;-72
2022/07/29 18:35:25;;;;;;;;;;;;;;;;;;4925669;29;19926;-73
2022/07/29 18:37:54;;;;;;;;;;;;;;;;;;4924325;29;19931;-72
2022/07/29 18:40:28;;;;;;;;;;;;;;;;;;4921680;29;19938;-73
2022/07/29 18:42:55;;;;;;;;;;;;;;;;;;4909991;29;19927;-73
2022/07/29 18:45:22;;;;;;;;;;;;;;;;;;4917684;29;19941;-72
2022/07/29 18:47:54;;;;;;;;;;;;;;;;;;4921921;29;20054;-71